createdAt,value
2023-03-22T00:00:35.501Z,3.55
2023-03-22T00:03:04.021Z,3.90
2023-03-22T00:05:32.494Z,4.70
2023-03-22T00:08:00.668Z,3.72
2023-03-22T00:10:29.786Z,3.53
2023-03-22T00:12:58.093Z,2.95
2023-03-22T00:15:29.572Z,4.15
2023-03-22T00:17:59.158Z,4.13
2023-03-22T00:20:30.479Z,3.92
2023-03-22T00:22:59.069Z,4.95
2023-03-22T00:25:27.186Z,6.70
2023-03-22T00:27:55.496Z,4.35
2023-03-22T00:30:23.634Z,4.40
2023-03-22T00:32:54.962Z,4.22
2023-03-22T00:35:23.102Z,4.43
2023-03-22T00:37:51.753Z,4.35
2023-03-22T00:40:20.271Z,4.93
2023-03-22T00:42:48.645Z,4.10
2023-03-22T00:45:16.707Z,3.50
2023-03-22T00:47:44.819Z,4.18
2023-03-22T00:50:14.304Z,3.90
2023-03-22T00:52:42.485Z,3.50
2023-03-22T00:55:11.052Z,3.95
2023-03-22T00:57:39.450Z,3.67
2023-03-22T01:00:16.087Z,4.13
2023-03-22T01:02:46.515Z,3.78
2023-03-22T01:05:22.168Z,4.45
2023-03-22T01:07:51.748Z,3.40
2023-03-22T01:10:20.420Z,3.78
2023-03-22T01:12:48.782Z,3.17
2023-03-22T01:15:17.180Z,3.70
2023-03-22T01:17:45.450Z,2.78
2023-03-22T01:20:14.332Z,3.53
2023-03-22T01:22:44.427Z,3.22
2023-03-22T01:25:12.603Z,2.78
2023-03-22T01:27:41.023Z,2.80
2023-03-22T01:30:10.765Z,3.08
2023-03-22T01:32:39.561Z,3.15
2023-03-22T01:35:08.597Z,2.90
2023-03-22T01:37:37.798Z,2.92
2023-03-22T01:40:08.851Z,4.07
2023-03-22T01:42:37.316Z,3.60
2023-03-22T01:45:42.229Z,3.08
2023-03-22T01:48:17.131Z,3.60
2023-03-22T01:50:50.685Z,3.00
2023-03-22T01:53:23.681Z,3.22
2023-03-22T01:55:55.441Z,3.60
2023-03-22T01:58:29.487Z,4.03
2023-03-22T02:01:01.172Z,3.30
2023-03-22T02:03:50.169Z,3.65
2023-03-22T02:06:19.355Z,3.30
2023-03-22T02:08:53.069Z,3.40
2023-03-22T02:11:30.397Z,3.47
2023-03-22T02:14:12.710Z,4.38
2023-03-22T02:17:15.707Z,3.78
2023-03-22T02:20:28.392Z,3.70
2023-03-22T02:23:31.709Z,3.42
2023-03-22T02:26:41.656Z,3.78
2023-03-22T02:29:19.234Z,3.75
2023-03-22T02:32:14.234Z,3.33
2023-03-22T02:35:22.462Z,3.90
2023-03-22T02:38:29.876Z,3.70
2023-03-22T02:41:11.847Z,4.38
2023-03-22T02:43:49.348Z,4.15
2023-03-22T02:46:23.961Z,3.90
2023-03-22T02:48:59.230Z,3.30
2023-03-22T02:51:34.372Z,3.88
2023-03-22T02:54:08.375Z,3.83
2023-03-22T02:56:42.612Z,4.20
2023-03-22T02:59:13.438Z,3.70
2023-03-22T03:01:45.230Z,3.88
2023-03-22T03:04:17.878Z,3.42
2023-03-22T03:06:50.062Z,3.88
2023-03-22T03:09:20.408Z,3.80
2023-03-22T03:11:52.821Z,3.97
2023-03-22T03:14:26.485Z,3.30
2023-03-22T03:17:15.274Z,3.85
2023-03-22T03:19:54.990Z,4.30
2023-03-22T03:22:38.042Z,4.50
2023-03-22T03:25:15.621Z,3.88
2023-03-22T03:27:51.298Z,4.30
2023-03-22T03:30:27.193Z,3.95
2023-03-22T03:32:59.572Z,3.47
2023-03-22T03:35:33.826Z,3.30
2023-03-22T03:38:07.900Z,4.30
2023-03-22T03:40:40.781Z,3.53
2023-03-22T03:43:11.789Z,3.95
2023-03-22T03:45:41.342Z,3.90
2023-03-22T03:48:15.889Z,4.07
2023-03-22T03:50:45.706Z,4.35
2023-03-22T03:53:14.039Z,3.80
2023-03-22T03:55:42.278Z,4.07
2023-03-22T03:58:11.761Z,3.90
2023-03-22T04:00:40.463Z,4.25
2023-03-22T04:03:27.217Z,3.45
2023-03-22T04:06:21.420Z,4.13
2023-03-22T04:08:56.783Z,3.90
2023-03-22T04:11:29.925Z,3.75
2023-03-22T04:14:02.748Z,3.97
2023-03-22T04:16:30.996Z,3.50
2023-03-22T04:18:59.274Z,3.38
2023-03-22T04:21:27.309Z,4.25
2023-03-22T04:24:00.036Z,4.20
2023-03-22T04:26:31.042Z,3.38
2023-03-22T04:29:19.657Z,4.35
2023-03-22T04:31:53.208Z,4.10
2023-03-22T04:34:33.267Z,3.70
2023-03-22T04:37:03.940Z,4.60
2023-03-22T04:39:38.852Z,4.20
2023-03-22T04:42:25.465Z,3.90
2023-03-22T04:45:07.827Z,4.47
2023-03-22T04:47:36.834Z,4.32
2023-03-22T04:50:09.055Z,4.40
2023-03-22T04:52:44.620Z,4.03
2023-03-22T04:55:13.063Z,4.10
2023-03-22T04:57:42.142Z,4.05
2023-03-22T05:00:12.821Z,3.90
2023-03-22T05:02:41.690Z,4.90
2023-03-22T05:05:16.866Z,4.22
2023-03-22T05:07:46.695Z,3.97
2023-03-22T05:10:14.899Z,5.07
2023-03-22T05:12:43.490Z,4.57
2023-03-22T05:15:34.604Z,4.10
2023-03-22T05:18:05.071Z,4.13
2023-03-22T05:20:33.443Z,4.43
2023-03-22T05:23:12.345Z,5.43
2023-03-22T05:25:45.306Z,3.75
2023-03-22T05:28:19.595Z,4.53
2023-03-22T05:31:11.192Z,5.20
2023-03-22T05:33:47.770Z,5.03
2023-03-22T05:36:19.655Z,3.60
2023-03-22T05:39:08.302Z,4.82
2023-03-22T05:41:37.057Z,4.07
2023-03-22T05:44:06.574Z,4.00
2023-03-22T05:46:38.492Z,4.47
2023-03-22T05:49:26.713Z,4.00
2023-03-22T05:51:56.157Z,3.70
2023-03-22T05:54:27.601Z,4.40
2023-03-22T05:56:56.124Z,4.35
2023-03-22T05:59:25.410Z,4.15
2023-03-22T06:01:55.094Z,3.92
2023-03-22T06:04:25.110Z,3.95
2023-03-22T06:07:02.926Z,4.38
2023-03-22T06:09:50.369Z,4.88
2023-03-22T06:12:24.775Z,3.72
2023-03-22T06:15:16.074Z,4.40
2023-03-22T06:18:11.957Z,4.32
2023-03-22T06:20:44.114Z,4.00
2023-03-22T06:23:17.760Z,4.20
2023-03-22T06:25:47.719Z,3.95
2023-03-22T06:28:16.965Z,4.32
2023-03-22T06:30:51.575Z,4.15
2023-03-22T06:33:30.987Z,3.35
2023-03-22T06:36:05.569Z,3.40
2023-03-22T06:39:06.365Z,4.20
2023-03-22T06:41:35.371Z,4.93
2023-03-22T06:44:03.910Z,3.58
2023-03-22T06:47:01.368Z,4.22
2023-03-22T06:49:49.199Z,3.58
2023-03-22T06:52:23.318Z,3.33
2023-03-22T06:54:52.816Z,4.05
2023-03-22T06:57:21.425Z,3.72
2023-03-22T06:59:49.501Z,3.70
2023-03-22T07:02:17.838Z,3.20
2023-03-22T07:05:08.115Z,3.88
2023-03-22T07:07:36.290Z,3.35
2023-03-22T07:10:05.041Z,3.20
2023-03-22T07:12:33.461Z,3.83
2023-03-22T07:15:08.313Z,3.30
2023-03-22T07:18:00.908Z,4.07
2023-03-22T07:20:30.573Z,3.03
2023-03-22T07:22:58.705Z,2.75
2023-03-22T07:25:29.786Z,2.92
2023-03-22T07:28:11.467Z,3.80
2023-03-22T07:30:40.832Z,3.15
2023-03-22T07:33:11.249Z,3.25
2023-03-22T07:35:41.415Z,3.47
2023-03-22T07:38:09.597Z,3.35
2023-03-22T07:40:38.226Z,3.15
2023-03-22T07:43:07.009Z,3.20
2023-03-22T07:46:08.421Z,4.00
2023-03-22T07:48:57.701Z,2.70
2023-03-22T07:51:46.249Z,2.80
2023-03-22T07:54:30.541Z,2.92
2023-03-22T07:57:02.208Z,2.85
2023-03-22T07:59:31.286Z,2.42
2023-03-22T08:02:00.632Z,2.58
2023-03-22T08:04:35.209Z,2.47
2023-03-22T08:07:15.577Z,2.58
2023-03-22T08:09:43.961Z,2.75
2023-03-22T08:12:12.176Z,2.53
2023-03-22T08:14:41.277Z,1.90
2023-03-22T08:17:16.422Z,2.15
2023-03-22T08:19:45.480Z,2.15
2023-03-22T08:22:19.187Z,1.80
2023-03-22T08:25:07.245Z,1.73
2023-03-22T08:27:39.215Z,2.45
2023-03-22T08:30:08.683Z,1.80
2023-03-22T08:32:37.106Z,2.10
2023-03-22T08:35:07.556Z,1.52
2023-03-22T08:37:37.527Z,1.65
2023-03-22T08:40:10.381Z,1.17
2023-03-22T08:42:43.383Z,0.93
2023-03-22T08:45:12.038Z,1.30
2023-03-22T08:47:48.453Z,1.23
2023-03-22T08:50:17.354Z,1.60
2023-03-22T08:52:58.101Z,1.23
2023-03-22T08:55:33.423Z,1.63
2023-03-22T08:58:11.404Z,1.38
2023-03-22T09:00:49.893Z,1.50
2023-03-22T09:03:41.025Z,1.83
2023-03-22T09:06:10.498Z,1.33
2023-03-22T09:08:42.496Z,1.40
2023-03-22T09:11:17.285Z,1.58
2023-03-22T09:13:47.523Z,1.73
2023-03-22T09:16:16.858Z,1.38
2023-03-22T09:18:46.246Z,1.70
2023-03-22T09:21:18.417Z,1.60
2023-03-22T09:23:53.609Z,1.50
2023-03-22T09:26:27.990Z,1.52
2023-03-22T09:28:56.503Z,1.42
2023-03-22T09:31:24.791Z,2.17
2023-03-22T09:34:04.237Z,2.00
2023-03-22T09:36:34.424Z,1.60
2023-03-22T09:39:07.282Z,1.50
2023-03-22T09:41:40.811Z,1.50
2023-03-22T09:44:15.471Z,1.35
2023-03-22T09:46:49.011Z,1.50
2023-03-22T09:49:21.261Z,1.20
2023-03-22T09:51:51.777Z,1.20
2023-03-22T09:54:28.818Z,1.63
2023-03-22T09:57:00.968Z,1.20
2023-03-22T09:59:40.205Z,1.40
2023-03-22T10:02:28.476Z,1.50
2023-03-22T10:05:01.797Z,1.38
2023-03-22T10:07:35.679Z,1.60
2023-03-22T10:10:10.391Z,1.55
2023-03-22T10:12:44.505Z,1.38
2023-03-22T10:15:16.542Z,1.50
2023-03-22T10:17:48.142Z,1.40
2023-03-22T10:20:26.674Z,2.00
2023-03-22T10:22:57.388Z,1.40
2023-03-22T10:25:36.629Z,1.42
2023-03-22T10:28:16.419Z,1.75
2023-03-22T10:30:51.085Z,1.50
2023-03-22T10:33:28.348Z,2.38
2023-03-22T10:35:57.510Z,1.40
2023-03-22T10:38:28.663Z,1.38
2023-03-22T10:41:01.143Z,1.10
2023-03-22T10:43:33.940Z,1.00
2023-03-22T10:46:05.213Z,1.30
2023-03-22T10:48:36.241Z,1.00
2023-03-22T10:51:05.341Z,0.90
2023-03-22T10:53:40.781Z,1.05
2023-03-22T10:56:15.741Z,0.80
2023-03-22T10:58:43.911Z,0.80
2023-03-22T11:01:14.493Z,0.88
2023-03-22T11:03:44.351Z,0.90
2023-03-22T11:06:14.625Z,0.98
2023-03-22T11:08:46.495Z,0.70
2023-03-22T11:11:23.478Z,0.85
2023-03-22T11:14:01.265Z,1.13
2023-03-22T11:16:30.716Z,0.95
2023-03-22T11:19:02.120Z,0.90
2023-03-22T11:21:33.287Z,1.10
2023-03-22T11:24:05.246Z,0.90
2023-03-22T11:26:40.525Z,0.98
2023-03-22T11:29:15.102Z,1.00
2023-03-22T11:31:57.412Z,1.00
2023-03-22T11:34:27.915Z,0.82
2023-03-22T11:36:57.843Z,0.80
2023-03-22T11:39:28.457Z,0.70
2023-03-22T11:42:01.537Z,0.68
2023-03-22T11:44:35.673Z,1.00
2023-03-22T11:47:05.775Z,0.80
2023-03-22T11:49:40.963Z,1.00
2023-03-22T11:52:12.359Z,0.90
2023-03-22T11:54:42.454Z,0.80
2023-03-22T11:57:17.344Z,0.93
2023-03-22T11:59:56.126Z,0.80
2023-03-22T12:02:28.400Z,0.90
2023-03-22T12:05:02.440Z,0.70
2023-03-22T12:07:32.846Z,0.90
2023-03-22T12:10:07.989Z,1.13
2023-03-22T12:12:41.682Z,1.00
2023-03-22T12:15:17.034Z,1.00
2023-03-22T12:17:50.291Z,1.30
2023-03-22T12:20:29.304Z,1.00
2023-03-22T12:22:59.468Z,0.90
2023-03-22T12:25:32.165Z,0.90
2023-03-22T12:28:07.770Z,0.90
2023-03-22T12:30:43.569Z,1.00
2023-03-22T12:33:19.483Z,1.05
2023-03-22T12:35:49.865Z,1.02
2023-03-22T12:38:28.227Z,0.90
2023-03-22T12:40:59.395Z,1.00
2023-03-22T12:43:40.528Z,1.10
2023-03-22T12:46:14.838Z,1.10
2023-03-22T12:48:46.807Z,1.08
2023-03-22T12:51:15.926Z,1.00
2023-03-22T12:53:46.866Z,1.17
2023-03-22T12:56:18.502Z,0.90
2023-03-22T12:58:51.945Z,0.85
2023-03-22T13:01:24.496Z,1.35
2023-03-22T13:03:55.478Z,1.40
2023-03-22T13:06:33.795Z,1.02
2023-03-22T13:09:05.327Z,0.90
2023-03-22T13:11:33.866Z,1.20
2023-03-22T13:14:03.931Z,1.20
2023-03-22T13:16:52.102Z,0.93
2023-03-22T13:19:34.204Z,1.20
2023-03-22T13:22:21.203Z,1.50
2023-03-22T13:25:01.656Z,1.10
2023-03-22T13:27:43.766Z,0.85
2023-03-22T13:30:24.689Z,0.90
2023-03-22T13:32:56.512Z,1.25
2023-03-22T13:35:28.188Z,1.20
2023-03-22T13:38:03.773Z,1.00
2023-03-22T13:40:37.768Z,1.40
2023-03-22T13:43:26.643Z,1.10
2023-03-22T13:46:45.663Z,1.00
2023-03-22T13:49:27.923Z,0.95
2023-03-22T13:52:00.125Z,1.10
2023-03-22T13:54:39.105Z,1.15
2023-03-22T13:57:17.678Z,1.00
2023-03-22T14:00:12.050Z,1.10
2023-03-22T14:02:44.430Z,1.30
2023-03-22T14:05:17.583Z,1.00
2023-03-22T14:07:50.022Z,1.00
2023-03-22T14:10:22.195Z,1.08
2023-03-22T14:12:55.164Z,0.93
2023-03-22T14:15:26.655Z,1.35
2023-03-22T14:17:59.201Z,1.00
2023-03-22T14:20:35.748Z,1.00
